createdAt,value
2018-11-20T00:01:11.211Z,80.90
2018-11-20T00:04:37.492Z,80.20
2018-11-20T00:07:44.224Z,80.30
2018-11-20T00:10:51.068Z,80.40
2018-11-20T00:13:57.880Z,80.30
2018-11-20T00:17:05.062Z,79.90
2018-11-20T00:20:11.819Z,79.30
2018-11-20T00:23:10.456Z,79.30
2018-11-20T00:26:17.196Z,79.30
2018-11-20T00:29:24.147Z,79.40
2018-11-20T00:32:53.413Z,79.50
2018-11-20T00:36:00.181Z,79.70
2018-11-20T00:39:06.990Z,79.30
2018-11-20T00:47:54.219Z,79.60
2018-11-20T00:51:01.061Z,79.40
2018-11-20T00:54:07.895Z,79.50
2018-11-20T00:57:14.771Z,79.60
2018-11-20T01:00:21.494Z,79.20
2018-11-20T01:03:17.888Z,79.20
2018-11-20T01:06:24.624Z,79.80
2018-11-20T01:09:27.059Z,79.70
2018-11-20T01:12:27.979Z,79.90
2018-11-20T01:15:34.957Z,80.30
2018-11-20T01:18:41.741Z,79.90
2018-11-20T01:21:48.514Z,80.20
2018-11-20T01:24:55.260Z,80.50
2018-11-20T01:28:03.577Z,80.50
2018-11-20T01:31:12.428Z,81.60
2018-11-20T01:34:19.263Z,80.90
2018-11-20T01:37:21.875Z,80.90
2018-11-20T01:40:23.532Z,81.30
2018-11-20T01:43:30.571Z,81.40
2018-11-20T01:46:27.340Z,81.10
2018-11-20T01:49:35.664Z,81.00
2018-11-20T01:52:42.798Z,81.20
2018-11-20T01:55:48.172Z,81.20
2018-11-20T01:58:55.392Z,81.20
2018-11-20T02:02:02.173Z,81.30
2018-11-20T02:05:07.604Z,80.80
2018-11-20T02:08:24.678Z,80.50
2018-11-20T02:11:31.589Z,80.90
2018-11-20T02:14:31.364Z,80.50
2018-11-20T02:20:52.549Z,79.60
2018-11-20T02:23:59.537Z,80.10
2018-11-20T02:27:05.078Z,80.10
2018-11-20T02:29:52.337Z,80.30
2018-11-20T02:32:59.342Z,80.20
2018-11-20T02:36:06.074Z,79.60
2018-11-20T02:39:13.381Z,80.10
2018-11-20T02:42:20.458Z,79.80
2018-11-20T02:48:38.065Z,79.50
2018-11-20T02:51:44.797Z,80.20
2018-11-20T02:54:51.599Z,80.20
2018-11-20T02:58:16.294Z,80.00
2018-11-20T03:04:35.755Z,80.10
2018-11-20T03:07:35.011Z,80.20
2018-11-20T03:10:42.287Z,80.00
2018-11-20T03:13:43.043Z,80.00
2018-11-20T03:16:49.960Z,80.30
2018-11-20T03:19:53.469Z,80.20
2018-11-20T03:22:30.949Z,80.30
2018-11-20T03:29:20.397Z,79.90
2018-11-20T03:32:08.076Z,80.10
2018-11-20T03:35:10.286Z,80.30
2018-11-20T03:38:17.036Z,79.90
2018-11-20T03:41:24.290Z,80.10
2018-11-20T03:44:24.408Z,80.10
2018-11-20T03:47:31.705Z,80.30
2018-11-20T03:50:38.715Z,81.30
2018-11-20T03:53:43.958Z,81.00
2018-11-20T03:57:05.652Z,81.10
2018-11-20T04:00:12.416Z,81.20
2018-11-20T04:03:08.103Z,81.70
2018-11-20T04:06:20.716Z,82.30
2018-11-20T04:09:08.003Z,82.60
2018-11-20T04:12:14.785Z,82.90
2018-11-20T04:15:21.542Z,83.20
2018-11-20T04:18:09.640Z,83.40
2018-11-20T04:21:06.426Z,83.50
2018-11-20T04:24:13.206Z,83.70
2018-11-20T04:27:19.970Z,83.90
2018-11-20T04:30:46.297Z,84.00
2018-11-20T04:33:53.733Z,83.90
2018-11-20T04:37:02.102Z,84.20
2018-11-20T04:42:57.670Z,84.00
2018-11-20T04:46:04.656Z,83.90
2018-11-20T04:49:26.187Z,84.10
2018-11-20T04:52:32.923Z,84.00
2018-11-20T04:55:39.776Z,83.70
2018-11-20T04:58:45.880Z,83.90
2018-11-20T05:01:52.719Z,84.80
2018-11-20T05:04:59.450Z,83.90
2018-11-20T05:07:59.867Z,83.70
2018-11-20T05:11:06.612Z,83.80
2018-11-20T05:14:13.451Z,83.90
2018-11-20T05:17:20.202Z,83.50
2018-11-20T05:20:26.994Z,83.50
2018-11-20T05:23:33.730Z,83.40
2018-11-20T05:26:29.612Z,83.30
2018-11-20T05:29:28.039Z,83.20
2018-11-20T05:35:42.158Z,83.20
2018-11-20T05:38:48.949Z,83.30
2018-11-20T05:44:26.547Z,83.20
2018-11-20T05:47:26.632Z,83.60
2018-11-20T05:50:26.101Z,83.50
2018-11-20T05:53:25.456Z,83.20
2018-11-20T05:56:25.723Z,83.00
2018-11-20T05:59:25.638Z,83.10
2018-11-20T06:02:07.254Z,83.40
2018-11-20T06:04:56.112Z,83.50
2018-11-20T06:07:56.148Z,83.40
2018-11-20T06:11:02.391Z,83.60
2018-11-20T06:17:04.587Z,83.60
2018-11-20T06:20:09.863Z,83.80
2018-11-20T06:26:21.461Z,83.90
2018-11-20T06:29:26.618Z,84.00
2018-11-20T06:32:33.600Z,83.90
2018-11-20T06:35:40.435Z,84.00
2018-11-20T06:38:37.750Z,84.30
2018-11-20T06:41:44.648Z,84.10
2018-11-20T06:44:45.130Z,84.20
2018-11-20T06:47:51.949Z,84.40
2018-11-20T06:50:58.704Z,84.40
2018-11-20T06:54:05.679Z,84.30
2018-11-20T06:57:08.122Z,84.40
2018-11-20T07:00:15.170Z,84.60
2018-11-20T07:03:21.927Z,84.60
2018-11-20T07:06:34.349Z,84.90
2018-11-20T07:09:41.225Z,84.90
2018-11-20T07:12:48.299Z,85.10
2018-11-20T07:15:51.332Z,85.10
2018-11-20T07:18:58.002Z,85.10
2018-11-20T07:22:04.761Z,85.10
2018-11-20T07:25:03.027Z,85.50
2018-11-20T07:28:10.125Z,85.30
2018-11-20T07:31:16.960Z,85.50
2018-11-20T07:34:23.697Z,86.10
2018-11-20T07:37:30.557Z,85.40
2018-11-20T07:44:01.938Z,85.60
2018-11-20T07:47:08.667Z,85.60
2018-11-20T07:50:10.478Z,85.70
2018-11-20T07:53:17.213Z,85.90
2018-11-20T08:03:27.729Z,86.10
2018-11-20T08:06:34.484Z,86.20
2018-11-20T08:09:41.352Z,86.50
2018-11-20T08:12:39.868Z,86.60
2018-11-20T08:15:47.069Z,86.80
2018-11-20T08:18:46.098Z,86.50
2018-11-20T08:21:52.060Z,86.70
2018-11-20T08:24:59.443Z,86.80
2018-11-20T08:28:06.202Z,86.70
2018-11-20T08:31:21.541Z,86.90
2018-11-20T08:34:28.425Z,87.00
2018-11-20T08:37:35.199Z,87.30
2018-11-20T08:40:44.864Z,87.30
2018-11-20T08:43:51.696Z,87.60
2018-11-20T08:46:59.007Z,87.60
2018-11-20T08:50:07.238Z,87.50
2018-11-20T08:53:06.681Z,87.70
2018-11-20T08:56:13.485Z,87.60
2018-11-20T08:59:07.239Z,87.80
2018-11-20T09:02:14.056Z,87.80
2018-11-20T09:05:20.752Z,87.80
2018-11-20T09:08:17.918Z,87.80
2018-11-20T09:11:24.679Z,87.80
2018-11-20T09:14:31.497Z,88.00
2018-11-20T09:17:38.587Z,88.00
2018-11-20T09:20:48.012Z,88.30
2018-11-20T09:27:03.998Z,87.90
2018-11-20T09:30:10.981Z,87.90
2018-11-20T09:33:17.920Z,87.90
2018-11-20T09:36:24.668Z,87.70
2018-11-20T09:39:31.500Z,87.60
2018-11-20T09:42:38.226Z,87.50
2018-11-20T09:45:47.086Z,87.60
2018-11-20T09:48:53.810Z,87.50
2018-11-20T09:52:00.580Z,87.60
2018-11-20T09:58:31.652Z,87.20
2018-11-20T10:01:38.391Z,87.20
2018-11-20T10:04:45.453Z,86.90
2018-11-20T10:07:52.416Z,87.00
2018-11-20T10:10:59.196Z,87.00
2018-11-20T10:14:06.026Z,87.10
2018-11-20T10:20:19.426Z,87.60
2018-11-20T10:23:26.571Z,86.30
2018-11-20T10:26:14.188Z,86.00
2018-11-20T10:29:29.387Z,86.30
2018-11-20T10:32:35.115Z,85.80
2018-11-20T10:35:41.863Z,85.40
2018-11-20T10:38:48.498Z,85.40
2018-11-20T10:41:55.624Z,85.20
2018-11-20T10:45:02.645Z,85.10
2018-11-20T10:48:09.710Z,85.00
2018-11-20T10:51:14.755Z,84.80
2018-11-20T10:54:21.605Z,84.60
2018-11-20T10:57:28.333Z,84.30
2018-11-20T11:00:33.726Z,83.90
2018-11-20T11:03:40.457Z,83.80
2018-11-20T11:06:47.585Z,83.90
2018-11-20T11:09:56.991Z,83.20
2018-11-20T11:13:03.962Z,83.60
2018-11-20T11:16:10.692Z,83.40
2018-11-20T11:19:16.418Z,83.10
2018-11-20T11:22:23.168Z,83.20
2018-11-20T11:28:41.002Z,83.00
2018-11-20T11:31:47.769Z,83.00
2018-11-20T11:34:54.512Z,82.90
2018-11-20T11:38:00.955Z,82.60
2018-11-20T11:41:07.768Z,82.90
2018-11-20T11:47:25.755Z,82.80
2018-11-20T11:50:32.484Z,83.00
2018-11-20T11:53:39.279Z,83.20
2018-11-20T11:57:00.877Z,83.10
2018-11-20T12:00:07.963Z,82.70
2018-11-20T12:03:14.776Z,82.60
2018-11-20T12:06:28.514Z,82.80
2018-11-20T12:09:35.258Z,83.00
2018-11-20T12:12:42.138Z,82.80
2018-11-20T12:15:41.959Z,83.10
2018-11-20T12:22:02.008Z,82.80
2018-11-20T12:25:05.145Z,82.70
2018-11-20T12:28:11.922Z,83.00
2018-11-20T12:31:18.915Z,83.10
2018-11-20T12:34:28.855Z,83.10
2018-11-20T12:37:35.620Z,83.50
2018-11-20T12:40:42.412Z,83.40
2018-11-20T12:43:47.505Z,82.70
2018-11-20T12:46:54.389Z,83.00
2018-11-20T12:50:01.157Z,83.40
2018-11-20T12:53:09.415Z,83.40
2018-11-20T12:56:16.278Z,83.80
2018-11-20T12:59:23.186Z,83.70
2018-11-20T13:02:30.314Z,83.80
2018-11-20T13:05:37.187Z,83.60
2018-11-20T13:08:43.961Z,83.70
2018-11-20T13:12:02.520Z,83.70
2018-11-20T13:15:09.926Z,83.70
2018-11-20T13:18:16.948Z,83.80
2018-11-20T13:21:23.051Z,84.00
2018-11-20T13:24:30.789Z,84.20
2018-11-20T13:27:37.542Z,84.30
2018-11-20T13:30:56.247Z,84.50
2018-11-20T13:34:03.232Z,84.50
2018-11-20T13:37:11.817Z,84.30
2018-11-20T13:40:04.176Z,84.50
2018-11-20T13:46:11.777Z,83.80
2018-11-20T13:49:18.670Z,84.00
2018-11-20T13:52:25.651Z,84.00
2018-11-20T13:58:47.234Z,84.20
2018-11-20T14:01:53.965Z,84.40
2018-11-20T14:05:00.912Z,84.30
2018-11-20T14:08:06.902Z,84.70
2018-11-20T14:11:14.096Z,85.50
2018-11-20T14:14:21.084Z,85.40
2018-11-20T14:17:47.336Z,85.90
2018-11-20T14:20:54.144Z,85.70
2018-11-20T14:27:06.069Z,85.00
2018-11-20T14:30:13.043Z,85.00
2018-11-20T14:33:19.885Z,84.70
2018-11-20T14:39:35.376Z,84.00
2018-11-20T14:42:42.132Z,83.70
2018-11-20T14:45:46.851Z,83.20
2018-11-20T14:48:53.735Z,83.20
2018-11-20T14:52:00.498Z,83.10
2018-11-20T14:55:07.693Z,82.90
2018-11-20T14:58:14.500Z,82.60
2018-11-20T15:01:21.367Z,82.80
2018-11-20T15:04:28.148Z,81.90
2018-11-20T15:07:35.047Z,82.30
2018-11-20T15:10:29.524Z,82.20
2018-11-20T15:13:36.463Z,82.40
2018-11-20T15:16:43.221Z,82.50
2018-11-20T15:19:49.968Z,82.40
2018-11-20T15:22:56.697Z,82.10
2018-11-20T15:26:06.422Z,82.30
2018-11-20T15:29:14.633Z,82.00
2018-11-20T15:32:21.451Z,81.30
2018-11-20T15:35:27.204Z,81.20
2018-11-20T15:38:34.092Z,81.20
2018-11-20T15:41:40.846Z,80.70
2018-11-20T15:44:38.184Z,80.40
2018-11-20T15:47:32.301Z,80.20
2018-11-20T15:50:39.088Z,80.00
2018-11-20T15:53:51.726Z,80.10
2018-11-20T16:00:03.106Z,79.30
2018-11-20T16:03:08.276Z,79.70
2018-11-20T16:06:02.655Z,79.70
2018-11-20T16:08:50.699Z,79.70
2018-11-20T16:11:38.172Z,79.60
2018-11-20T16:14:45.535Z,79.80
2018-11-20T16:17:52.529Z,79.90
2018-11-20T16:20:59.303Z,80.00
2018-11-20T16:24:02.038Z,79.80
2018-11-20T16:27:08.807Z,79.60
2018-11-20T16:30:15.537Z,80.10
2018-11-20T16:33:16.185Z,80.10
2018-11-20T16:36:41.196Z,80.30
2018-11-20T16:42:59.409Z,80.20
2018-11-20T16:46:06.136Z,80.40
2018-11-20T16:49:15.827Z,80.60
2018-11-20T16:55:49.568Z,80.30
2018-11-20T16:58:56.290Z,80.60
2018-11-20T17:02:07.415Z,80.80
2018-11-20T17:05:04.744Z,80.50
2018-11-20T17:11:13.237Z,80.80
2018-11-20T17:14:20.087Z,80.70
2018-11-20T17:24:22.681Z,80.60
2018-11-20T17:27:29.995Z,80.70
2018-11-20T17:30:36.847Z,80.60
2018-11-20T17:33:43.592Z,80.80
2018-11-20T17:36:48.186Z,80.60
2018-11-20T17:39:35.592Z,81.30
2018-11-20T17:42:42.717Z,80.70
2018-11-20T17:45:49.548Z,80.80
2018-11-20T17:48:56.408Z,80.50
2018-11-20T17:52:03.607Z,80.80
2018-11-20T17:55:00.985Z,80.70
2018-11-20T17:58:07.717Z,80.60
2018-11-20T18:01:14.460Z,80.80
2018-11-20T18:04:11.868Z,80.90
2018-11-20T18:07:19.075Z,80.60
2018-11-20T18:10:26.738Z,80.90
2018-11-20T18:13:22.846Z,80.90
2018-11-20T18:16:29.963Z,80.90
2018-11-20T18:19:36.813Z,80.60
2018-11-20T18:22:46.128Z,80.60
2018-11-20T18:25:45.614Z,80.80
2018-11-20T18:28:52.352Z,80.90
2018-11-20T18:35:07.674Z,80.80
2018-11-20T18:38:14.840Z,81.40
2018-11-20T18:41:13.858Z,80.80
2018-11-20T18:44:20.683Z,80.80
2018-11-20T18:47:27.451Z,80.80
2018-11-20T18:50:34.455Z,80.80
2018-11-20T18:53:41.290Z,80.90
2018-11-20T18:56:48.048Z,80.90
2018-11-20T18:59:55.075Z,80.80
2018-11-20T19:03:01.815Z,80.80
2018-11-20T19:06:08.903Z,80.60
2018-11-20T19:09:22.802Z,80.60
2018-11-20T19:15:27.006Z,80.70
2018-11-20T19:18:26.392Z,80.70
2018-11-20T19:21:32.058Z,80.70
2018-11-20T19:24:32.041Z,80.50
2018-11-20T19:27:21.489Z,80.40
2018-11-20T19:30:21.430Z,80.40
2018-11-20T19:33:21.357Z,80.30
2018-11-20T19:36:20.759Z,80.30
2018-11-20T19:39:03.458Z,80.20
2018-11-20T19:42:01.152Z,80.30
2018-11-20T19:45:01.573Z,80.40
2018-11-20T19:48:00.986Z,80.30
2018-11-20T19:54:08.715Z,79.90
2018-11-20T19:57:08.675Z,80.10
2018-11-20T20:00:09.304Z,80.20
2018-11-20T20:03:09.669Z,79.90
2018-11-20T20:06:09.657Z,80.20
2018-11-20T20:12:14.173Z,80.20
2018-11-20T20:15:14.408Z,80.20
2018-11-20T20:18:10.228Z,80.20
2018-11-20T20:21:12.516Z,80.60
2018-11-20T20:24:12.334Z,80.40
2018-11-20T20:27:12.691Z,80.40
2018-11-20T20:33:21.120Z,80.20
2018-11-20T20:36:20.737Z,80.20
2018-11-20T20:39:20.640Z,80.10
2018-11-20T20:42:26.770Z,80.30
2018-11-20T20:45:26.179Z,80.30
2018-11-20T20:51:39.766Z,80.40
2018-11-20T20:54:39.843Z,80.70
2018-11-20T20:57:39.933Z,80.60
2018-11-20T21:00:38.173Z,80.40
2018-11-20T21:03:27.449Z,80.70
2018-11-20T21:06:27.016Z,80.70
2018-11-20T21:09:26.615Z,80.60
2018-11-20T21:12:20.140Z,80.70
2018-11-20T21:18:28.641Z,80.60
2018-11-20T21:21:28.242Z,80.40
2018-11-20T21:24:30.983Z,80.30
2018-11-20T21:27:32.509Z,80.40
2018-11-20T21:30:30.072Z,80.70
2018-11-20T21:33:29.953Z,80.60
2018-11-20T21:36:29.962Z,80.60
2018-11-20T21:39:20.420Z,80.80
2018-11-20T21:42:07.685Z,81.00
2018-11-20T21:45:07.089Z,81.00
2018-11-20T21:48:05.089Z,80.80
2018-11-20T21:51:04.727Z,81.20
2018-11-20T21:54:04.855Z,81.10
2018-11-20T21:57:04.583Z,81.00
2018-11-20T21:59:55.543Z,81.10
2018-11-20T22:03:02.803Z,81.10
2018-11-20T22:06:09.780Z,81.30
2018-11-20T22:09:16.676Z,81.30
2018-11-20T22:12:22.152Z,81.50
2018-11-20T22:15:29.351Z,81.80
2018-11-20T22:18:36.112Z,81.50
2018-11-20T22:21:43.573Z,81.70
2018-11-20T22:24:50.386Z,81.90
2018-11-20T22:27:57.475Z,82.00
2018-11-20T22:31:07.051Z,82.00
2018-11-20T22:34:13.840Z,82.90
2018-11-20T22:37:20.574Z,82.30
2018-11-20T22:40:27.348Z,82.10
2018-11-20T22:43:34.089Z,81.90
2018-11-20T22:46:40.856Z,82.10
2018-11-20T22:49:43.478Z,82.50
2018-11-20T22:52:50.603Z,82.50
2018-11-20T22:55:57.405Z,82.50
2018-11-20T22:58:56.025Z,82.90
2018-11-20T23:02:02.988Z,82.60
2018-11-20T23:05:09.380Z,82.80
2018-11-20T23:07:57.529Z,82.90
2018-11-20T23:10:45.302Z,83.00
2018-11-20T23:13:33.314Z,83.00
2018-11-20T23:16:20.843Z,82.90
2018-11-20T23:19:10.297Z,83.00
2018-11-20T23:21:58.249Z,83.20
2018-11-20T23:24:46.874Z,82.90
2018-11-20T23:27:34.710Z,82.80
2018-11-20T23:30:23.262Z,82.80
2018-11-20T23:41:51.693Z,83.10
2018-11-20T23:44:39.275Z,83.20
2018-11-20T23:53:28.561Z,82.90
2018-11-20T23:59:09.470Z,83.10
